createdAt,value
2023-03-22T00:02:04.424Z,76.73
2023-03-22T00:04:31.295Z,77.12
2023-03-22T00:06:57.793Z,77.40
2023-03-22T00:09:24.399Z,77.17
2023-03-22T00:11:51.125Z,77.51
2023-03-22T00:14:18.765Z,77.72
2023-03-22T00:16:46.322Z,78.12
2023-03-22T00:19:12.906Z,78.24
2023-03-22T00:21:39.359Z,78.54
2023-03-22T00:24:06.516Z,78.86
2023-03-22T00:26:32.972Z,77.90
2023-03-22T00:28:59.760Z,78.91
2023-03-22T00:31:26.349Z,78.66
2023-03-22T00:33:52.833Z,79.15
2023-03-22T00:36:19.305Z,78.46
2023-03-22T00:38:46.009Z,79.33
2023-03-22T00:41:18.616Z,78.67
2023-03-22T00:43:46.789Z,79.75
2023-03-22T00:46:14.651Z,79.30
2023-03-22T00:48:41.681Z,79.99
2023-03-22T00:51:09.098Z,80.47
2023-03-22T00:53:42.406Z,79.90
2023-03-22T00:56:10.880Z,80.60
2023-03-22T00:58:37.348Z,80.75
2023-03-22T01:01:03.992Z,81.11
2023-03-22T01:03:30.801Z,81.03
2023-03-22T01:05:57.795Z,80.17
2023-03-22T01:08:24.332Z,80.82
2023-03-22T01:10:51.166Z,80.82
2023-03-22T01:13:18.193Z,81.39
2023-03-22T01:15:45.161Z,81.33
2023-03-22T01:18:11.705Z,81.80
2023-03-22T01:20:38.683Z,81.74
2023-03-22T01:23:05.378Z,81.18
2023-03-22T01:25:32.011Z,80.32
2023-03-22T01:27:58.972Z,81.80
2023-03-22T01:30:25.963Z,81.93
2023-03-22T01:32:52.571Z,81.64
2023-03-22T01:35:19.197Z,82.04
2023-03-22T01:37:45.801Z,81.70
2023-03-22T01:40:15.337Z,81.74
2023-03-22T01:42:42.174Z,81.72
2023-03-22T01:45:14.698Z,82.54
2023-03-22T01:47:52.144Z,81.74
2023-03-22T01:50:20.274Z,82.04
2023-03-22T01:52:48.332Z,81.42
2023-03-22T01:55:18.179Z,82.23
2023-03-22T01:57:45.618Z,81.59
2023-03-22T02:00:15.440Z,83.02
2023-03-22T02:02:48.718Z,82.56
2023-03-22T02:05:15.528Z,82.15
2023-03-22T02:07:43.136Z,82.31
2023-03-22T02:10:15.602Z,83.65
2023-03-22T02:13:03.232Z,83.54
2023-03-22T02:15:42.938Z,83.83
2023-03-22T02:18:41.653Z,84.08
2023-03-22T02:21:45.343Z,84.28
2023-03-22T02:24:46.260Z,84.44
2023-03-22T02:27:23.560Z,84.36
2023-03-22T02:30:07.063Z,84.87
2023-03-22T02:32:47.662Z,84.19
2023-03-22T02:35:14.082Z,84.51
2023-03-22T02:38:10.510Z,84.43
2023-03-22T02:41:11.345Z,84.49
2023-03-22T02:43:50.060Z,84.58
2023-03-22T02:46:22.853Z,83.93
2023-03-22T02:49:01.493Z,83.86
2023-03-22T02:51:45.862Z,84.34
2023-03-22T02:54:26.296Z,83.91
2023-03-22T02:57:00.320Z,84.30
2023-03-22T02:59:29.575Z,83.69
2023-03-22T03:01:58.654Z,84.04
2023-03-22T03:04:29.958Z,83.72
2023-03-22T03:07:01.824Z,84.03
2023-03-22T03:09:29.613Z,83.73
2023-03-22T03:11:56.069Z,84.13
2023-03-22T03:14:32.584Z,83.90
2023-03-22T03:17:44.091Z,84.00
2023-03-22T03:20:46.431Z,83.99
2023-03-22T03:23:31.190Z,84.33
2023-03-22T03:26:01.627Z,84.43
2023-03-22T03:29:05.932Z,84.55
2023-03-22T03:31:45.606Z,84.67
2023-03-22T03:34:33.721Z,84.49
2023-03-22T03:37:05.840Z,84.41
2023-03-22T03:39:37.787Z,84.75
2023-03-22T03:42:06.625Z,84.62
2023-03-22T03:44:36.164Z,84.67
2023-03-22T03:47:03.510Z,85.26
2023-03-22T03:49:30.233Z,85.23
2023-03-22T03:51:56.696Z,85.06
2023-03-22T03:54:23.352Z,84.77
2023-03-22T03:56:50.865Z,84.81
2023-03-22T03:59:18.855Z,85.06
2023-03-22T04:01:50.272Z,85.35
2023-03-22T04:04:26.709Z,85.03
2023-03-22T04:06:58.134Z,85.19
2023-03-22T04:09:27.427Z,85.29
2023-03-22T04:11:55.393Z,85.49
2023-03-22T04:14:25.176Z,85.42
2023-03-22T04:16:52.593Z,85.39
2023-03-22T04:19:19.767Z,85.76
2023-03-22T04:21:46.759Z,85.50
2023-03-22T04:24:14.090Z,84.18
2023-03-22T04:26:41.245Z,84.88
2023-03-22T04:29:07.699Z,85.34
2023-03-22T04:31:35.670Z,85.08
2023-03-22T04:34:05.731Z,84.74
2023-03-22T04:36:36.307Z,85.48
2023-03-22T04:39:05.856Z,85.55
2023-03-22T04:41:33.254Z,85.63
2023-03-22T04:44:03.312Z,85.90
2023-03-22T04:46:32.056Z,85.61
2023-03-22T04:48:58.687Z,85.28
2023-03-22T04:51:26.282Z,85.48
2023-03-22T04:53:54.080Z,85.48
2023-03-22T04:56:21.533Z,85.72
2023-03-22T04:58:48.163Z,84.88
2023-03-22T05:01:17.072Z,84.99
2023-03-22T05:03:45.688Z,85.12
2023-03-22T05:06:12.479Z,84.06
2023-03-22T05:08:39.103Z,85.45
2023-03-22T05:11:12.176Z,85.40
2023-03-22T05:13:39.168Z,85.32
2023-03-22T05:16:06.855Z,85.02
2023-03-22T05:18:33.653Z,86.11
2023-03-22T05:21:03.895Z,85.23
2023-03-22T05:23:30.546Z,84.43
2023-03-22T05:25:58.279Z,84.54
2023-03-22T05:28:27.195Z,85.11
2023-03-22T05:30:56.575Z,85.30
2023-03-22T05:33:23.526Z,84.19
2023-03-22T05:35:51.149Z,84.27
2023-03-22T05:38:17.963Z,84.82
2023-03-22T05:40:45.455Z,84.26
2023-03-22T05:43:12.060Z,84.06
2023-03-22T05:45:38.719Z,84.30
2023-03-22T05:48:05.542Z,84.79
2023-03-22T05:50:32.429Z,84.83
2023-03-22T05:52:59.113Z,84.82
2023-03-22T05:55:26.157Z,84.78
2023-03-22T05:57:54.703Z,84.66
2023-03-22T06:00:21.757Z,84.56
2023-03-22T06:02:52.248Z,84.42
2023-03-22T06:05:18.911Z,84.55
2023-03-22T06:07:47.920Z,84.37
2023-03-22T06:10:15.408Z,84.12
2023-03-22T06:12:42.001Z,83.88
2023-03-22T06:15:09.726Z,83.59
2023-03-22T06:17:36.522Z,83.48
2023-03-22T06:20:09.347Z,83.68
2023-03-22T06:22:36.512Z,83.14
2023-03-22T06:25:03.468Z,83.32
2023-03-22T06:27:29.952Z,82.78
2023-03-22T06:29:56.406Z,83.03
2023-03-22T06:32:23.677Z,82.78
2023-03-22T06:34:54.313Z,82.58
2023-03-22T06:37:21.456Z,82.16
2023-03-22T06:39:48.136Z,82.07
2023-03-22T06:42:14.785Z,81.62
2023-03-22T06:44:43.899Z,81.60
2023-03-22T06:47:11.664Z,81.29
2023-03-22T06:49:38.742Z,81.14
2023-03-22T06:52:05.664Z,80.70
2023-03-22T06:54:32.194Z,80.93
2023-03-22T06:56:58.666Z,80.62
2023-03-22T06:59:25.259Z,80.41
2023-03-22T07:01:51.698Z,80.03
2023-03-22T07:04:19.932Z,79.54
2023-03-22T07:06:46.654Z,78.61
2023-03-22T07:09:13.137Z,78.12
2023-03-22T07:11:39.613Z,76.82
2023-03-22T07:14:06.333Z,75.67
2023-03-22T07:16:32.841Z,74.66
2023-03-22T07:18:59.439Z,73.71
2023-03-22T07:21:25.921Z,74.20
2023-03-22T07:23:52.562Z,74.21
2023-03-22T07:26:19.146Z,73.94
2023-03-22T07:28:46.132Z,73.74
2023-03-22T07:31:13.760Z,73.58
2023-03-22T07:33:41.900Z,73.97
2023-03-22T07:36:09.461Z,73.96
2023-03-22T07:38:36.460Z,74.41
2023-03-22T07:41:03.427Z,73.74
2023-03-22T07:43:29.880Z,72.43
2023-03-22T07:45:57.125Z,72.74
2023-03-22T07:48:23.990Z,72.33
2023-03-22T07:50:55.421Z,70.59
2023-03-22T07:53:21.865Z,70.66
2023-03-22T07:55:48.392Z,70.37
2023-03-22T07:58:14.994Z,70.45
2023-03-22T08:00:41.809Z,70.07
2023-03-22T08:03:11.701Z,70.85
2023-03-22T08:05:42.107Z,71.48
2023-03-22T08:08:09.416Z,71.31
2023-03-22T08:10:35.934Z,70.92
2023-03-22T08:13:02.412Z,70.89
2023-03-22T08:15:28.916Z,71.19
2023-03-22T08:17:58.102Z,71.15
2023-03-22T08:20:27.564Z,70.75
2023-03-22T08:22:54.615Z,70.91
2023-03-22T08:25:21.837Z,71.47
2023-03-22T08:27:48.315Z,71.21
2023-03-22T08:30:15.623Z,70.91
2023-03-22T08:32:42.207Z,70.94
2023-03-22T08:35:09.546Z,71.03
2023-03-22T08:37:36.293Z,70.55
2023-03-22T08:40:06.467Z,69.68
2023-03-22T08:42:32.968Z,69.44
2023-03-22T08:44:59.394Z,68.36
2023-03-22T08:47:26.026Z,68.02
2023-03-22T08:49:52.467Z,67.66
2023-03-22T08:52:18.929Z,67.86
2023-03-22T08:54:45.421Z,67.50
2023-03-22T08:57:11.925Z,66.59
2023-03-22T08:59:38.384Z,66.95
2023-03-22T09:02:05.659Z,67.30
2023-03-22T09:04:32.230Z,66.93
2023-03-22T09:06:58.837Z,66.16
2023-03-22T09:09:25.392Z,66.22
2023-03-22T09:11:51.939Z,64.56
2023-03-22T09:14:18.427Z,65.23
2023-03-22T09:16:45.548Z,64.69
2023-03-22T09:19:12.093Z,64.68
2023-03-22T09:21:38.602Z,64.51
2023-03-22T09:24:05.282Z,65.11
2023-03-22T09:26:32.077Z,65.18
2023-03-22T09:28:58.561Z,65.32
2023-03-22T09:31:25.172Z,65.29
2023-03-22T09:33:51.713Z,65.38
2023-03-22T09:36:18.609Z,65.95
2023-03-22T09:38:46.612Z,66.06
2023-03-22T09:41:27.224Z,66.66
2023-03-22T09:43:58.266Z,66.01
2023-03-22T09:46:31.976Z,65.76
2023-03-22T09:49:01.607Z,65.44
2023-03-22T09:51:49.457Z,64.85
2023-03-22T09:54:29.524Z,64.47
2023-03-22T09:57:07.385Z,64.01
2023-03-22T09:59:39.992Z,64.01
2023-03-22T10:02:34.557Z,64.16
2023-03-22T10:05:13.264Z,64.95
2023-03-22T10:07:49.028Z,64.59
2023-03-22T10:10:20.259Z,64.30
2023-03-22T10:13:07.542Z,64.69
2023-03-22T10:15:40.837Z,64.05
2023-03-22T10:18:15.801Z,63.97
2023-03-22T10:21:08.066Z,64.12
2023-03-22T10:23:49.165Z,64.16
2023-03-22T10:26:22.653Z,63.42
2023-03-22T10:29:23.887Z,62.95
2023-03-22T10:31:50.416Z,63.55
2023-03-22T10:34:33.621Z,62.84
2023-03-22T10:37:04.125Z,62.73
2023-03-22T10:39:32.501Z,63.55
2023-03-22T10:42:02.858Z,63.04
2023-03-22T10:44:34.854Z,63.16
2023-03-22T10:47:07.887Z,63.28
2023-03-22T10:49:39.969Z,63.59
2023-03-22T10:52:34.674Z,63.52
2023-03-22T10:55:04.341Z,63.39
2023-03-22T10:57:31.178Z,64.25
2023-03-22T10:59:58.062Z,64.17
2023-03-22T11:02:28.017Z,64.08
2023-03-22T11:05:00.585Z,63.88
2023-03-22T11:07:36.237Z,64.13
2023-03-22T11:10:08.407Z,64.31
2023-03-22T11:12:49.421Z,64.09
2023-03-22T11:15:33.900Z,63.92
2023-03-22T11:18:12.057Z,63.78
2023-03-22T11:20:42.184Z,64.10
2023-03-22T11:23:17.732Z,63.64
2023-03-22T11:25:47.834Z,63.61
2023-03-22T11:28:34.903Z,63.61
2023-03-22T11:31:11.055Z,63.70
2023-03-22T11:33:38.372Z,62.50
2023-03-22T11:36:16.504Z,63.05
2023-03-22T11:38:44.923Z,63.25
2023-03-22T11:41:29.704Z,63.43
2023-03-22T11:44:10.536Z,63.17
2023-03-22T11:46:38.112Z,62.89
2023-03-22T11:49:14.619Z,62.90
2023-03-22T11:51:42.474Z,63.27
2023-03-22T11:54:30.075Z,62.93
2023-03-22T11:57:01.424Z,62.39
2023-03-22T11:59:30.693Z,61.46
2023-03-22T12:02:19.164Z,62.05
2023-03-22T12:04:49.039Z,62.09
2023-03-22T12:07:19.484Z,62.24
2023-03-22T12:10:25.132Z,62.68
2023-03-22T12:13:04.463Z,62.39
2023-03-22T12:15:41.020Z,62.33
2023-03-22T12:18:16.652Z,62.58
2023-03-22T12:20:55.567Z,62.75
2023-03-22T12:23:27.272Z,62.71
2023-03-22T12:26:00.030Z,62.82
2023-03-22T12:28:42.045Z,62.33
2023-03-22T12:31:17.307Z,62.81
2023-03-22T12:33:48.008Z,62.47
2023-03-22T12:36:20.675Z,62.94
2023-03-22T12:38:54.450Z,63.34
2023-03-22T12:41:27.783Z,63.93
2023-03-22T12:44:00.337Z,63.98
2023-03-22T12:46:33.379Z,63.40
2023-03-22T12:49:11.539Z,63.57
2023-03-22T12:51:38.313Z,63.55
2023-03-22T12:54:05.539Z,63.93
2023-03-22T12:56:41.114Z,64.07
2023-03-22T12:59:42.269Z,64.21
2023-03-22T13:02:16.075Z,64.49
2023-03-22T13:04:43.247Z,64.42
2023-03-22T13:07:49.713Z,64.46
2023-03-22T13:10:31.795Z,64.64
2023-03-22T13:13:07.541Z,64.74
2023-03-22T13:15:41.872Z,64.47
2023-03-22T13:18:37.641Z,64.47
2023-03-22T13:21:22.333Z,65.10
2023-03-22T13:24:04.644Z,64.31
2023-03-22T13:26:36.756Z,64.24
2023-03-22T13:29:19.082Z,64.54
2023-03-22T13:31:57.553Z,64.37
2023-03-22T13:34:31.867Z,64.46
2023-03-22T13:36:59.310Z,64.33
2023-03-22T13:39:32.967Z,64.33
2023-03-22T13:42:17.151Z,64.07
2023-03-22T13:44:46.050Z,64.05
2023-03-22T13:47:34.116Z,64.20
2023-03-22T13:50:07.506Z,63.91
2023-03-22T13:52:38.549Z,64.17
2023-03-22T13:55:18.503Z,64.12
2023-03-22T13:57:58.840Z,64.26
2023-03-22T14:00:31.519Z,64.51
2023-03-22T14:03:01.884Z,64.40
2023-03-22T14:05:32.665Z,64.62
2023-03-22T14:08:01.905Z,64.46
2023-03-22T14:10:38.501Z,64.30
2023-03-22T14:13:17.204Z,64.43
2023-03-22T14:15:53.566Z,64.69
2023-03-22T14:18:36.390Z,64.68
2023-03-22T14:21:11.461Z,65.12
